Time;durP1;ratioP1;P1;durP2;ratioP2;P2;SDS_P1;SDS_P2;PMS_P1;PMS_P2;Temp;Humidity;BMP_temperature;BMP_pressure;BME280_temperature;BME280_humidity;BME280_pressure;Samples;Min_cycle;Max_cycle;Signal;HPM_P1;HPM_P2
2023/08/21 00:00:14;;;;;;;15.50;8.83;;;24.90;1.00;;;;;;5027304;28;20213;-74
2023/08/21 00:02:40;;;;;;;11.80;7.80;;;24.70;1.00;;;;;;5025831;28;20220;-73
2023/08/21 00:05:06;;;;;;;15.90;9.00;;;24.70;1.00;;;;;;5024238;28;20181;-73
2023/08/21 00:07:31;;;;;;;11.90;8.43;;;24.70;1.00;;;;;;5024844;28;20224;-73
2023/08/21 00:09:57;;;;;;;12.47;8.50;;;24.60;1.00;;;;;;5020966;28;20447;-74
2023/08/21 00:12:22;;;;;;;12.00;7.80;;;24.60;1.00;;;;;;5027491;28;20347;-74
2023/08/21 00:14:48;;;;;;;12.80;8.40;;;24.50;1.00;;;;;;5028240;28;20195;-74
2023/08/21 00:17:14;;;;;;;13.53;8.03;;;24.60;1.00;;;;;;5026276;28;20287;-74
2023/08/21 00:19:39;;;;;;;9.90;8.20;;;24.60;1.00;;;;;;5026767;28;20362;-73
2023/08/21 00:22:05;;;;;;;10.90;7.70;;;24.60;1.00;;;;;;5027221;28;20680;-75
2023/08/21 00:24:30;;;;;;;15.53;7.70;;;24.60;1.00;;;;;;5026023;28;20185;-73
2023/08/21 00:26:56;;;;;;;12.23;8.17;;;24.60;1.00;;;;;;5027574;28;20492;-74
2023/08/21 00:29:21;;;;;;;12.03;8.10;;;24.70;1.00;;;;;;5027863;28;20186;-76
2023/08/21 00:31:47;;;;;;;11.37;8.00;;;24.60;1.00;;;;;;5027404;28;20742;-74
2023/08/21 00:34:12;;;;;;;12.10;8.90;;;24.60;1.00;;;;;;5026219;28;20238;-73
2023/08/21 00:36:38;;;;;;;10.63;7.90;;;24.60;1.00;;;;;;5026278;28;20193;-73
2023/08/21 00:39:03;;;;;;;12.33;8.17;;;24.50;1.00;;;;;;5027055;28;20220;-75
2023/08/21 00:41:29;;;;;;;14.10;8.60;;;24.60;1.00;;;;;;5025813;28;20779;-74
2023/08/21 00:43:54;;;;;;;12.20;8.10;;;24.60;1.00;;;;;;5027674;28;20180;-74
2023/08/21 00:46:20;;;;;;;10.00;7.83;;;24.60;1.00;;;;;;5025419;28;20187;-74
2023/08/21 00:48:46;;;;;;;15.07;8.37;;;24.70;1.00;;;;;;5025627;28;20208;-74
2023/08/21 00:51:15;;;;;;;11.97;8.67;;;24.50;1.00;;;;;;5027319;28;20235;-73
2023/08/21 00:53:40;;;;;;;16.07;8.37;;;24.50;1.00;;;;;;5023292;28;20181;-74
2023/08/21 00:56:06;;;;;;;13.70;8.40;;;24.40;1.00;;;;;;5027128;28;20728;-73
2023/08/21 00:58:32;;;;;;;12.57;8.47;;;24.40;1.00;;;;;;5025865;28;20224;-74
2023/08/21 01:00:57;;;;;;;13.67;8.43;;;24.40;1.00;;;;;;5025676;28;20914;-74
2023/08/21 01:03:24;;;;;;;13.00;8.57;;;24.40;1.00;;;;;;5026232;28;20185;-74
2023/08/21 01:05:50;;;;;;;11.87;8.87;;;24.30;1.00;;;;;;5026339;28;20275;-74
2023/08/21 01:08:33;;;;;;;10.77;8.53;;;24.30;1.00;;;;;;5025323;28;20518;-74
2023/08/21 01:11:16;;;;;;;10.43;7.83;;;24.30;1.00;;;;;;5022700;28;20192;-73
2023/08/21 01:13:59;;;;;;;12.17;9.00;;;24.30;1.00;;;;;;5024917;28;20895;-73
2023/08/21 01:16:25;;;;;;;10.47;8.43;;;24.30;1.00;;;;;;5023515;28;21008;-74
2023/08/21 01:18:53;;;;;;;13.43;8.70;;;24.40;1.00;;;;;;5025352;28;20475;-74
2023/08/21 01:21:19;;;;;;;12.70;8.63;;;24.20;1.00;;;;;;5025629;28;20656;-74
2023/08/21 01:23:44;;;;;;;13.07;8.50;;;24.10;1.00;;;;;;5026852;28;20493;-74
2023/08/21 01:26:10;;;;;;;12.73;8.60;;;24.10;1.00;;;;;;5019275;28;20177;-74
2023/08/21 01:28:37;;;;;;;13.60;8.50;;;24.00;1.00;;;;;;5025401;28;20216;-74
2023/08/21 01:31:12;;;;;;;11.20;8.33;;;24.00;1.00;;;;;;5026405;28;20440;-74
2023/08/21 01:33:45;;;;;;;13.70;8.57;;;23.90;1.00;;;;;;5025004;28;20486;-74
2023/08/21 01:36:11;;;;;;;13.70;9.07;;;23.90;1.00;;;;;;5024981;28;20580;-74
2023/08/21 01:38:37;;;;;;;10.50;8.13;;;23.90;1.00;;;;;;5024198;28;20484;-74
2023/08/21 01:41:03;;;;;;;10.27;7.90;;;23.80;1.00;;;;;;5024446;28;20435;-74
2023/08/21 01:43:28;;;;;;;13.07;8.43;;;23.80;1.00;;;;;;5025577;28;20255;-75
2023/08/21 01:45:55;;;;;;;13.30;8.33;;;23.70;1.00;;;;;;5025015;28;20316;-74
2023/08/21 01:48:20;;;;;;;10.90;8.90;;;23.80;1.00;;;;;;5026483;28;20276;-73
2023/08/21 01:50:46;;;;;;;16.10;8.93;;;23.80;1.00;;;;;;5023473;28;21005;-73
2023/08/21 01:53:11;;;;;;;11.23;8.63;;;24.00;1.00;;;;;;5026232;28;20185;-74
2023/08/21 01:55:37;;;;;;;12.47;9.20;;;;;;;;;;5025852;28;20181;-76
2023/08/21 01:58:03;;;;;;;13.00;9.73;;;23.80;1.00;;;;;;5025579;28;20197;-74
2023/08/21 02:00:28;;;;;;;11.60;9.10;;;23.70;1.00;;;;;;5029009;28;20662;-73
2023/08/21 02:02:54;;;;;;;13.20;9.00;;;23.70;1.00;;;;;;5028846;28;20661;-73
2023/08/21 02:05:19;;;;;;;11.10;8.50;;;23.80;1.00;;;;;;5027131;28;20177;-74
2023/08/21 02:07:45;;;;;;;16.90;8.97;;;23.70;1.00;;;;;;5027998;28;20578;-75
2023/08/21 02:10:11;;;;;;;13.20;9.63;;;23.60;1.00;;;;;;5028610;28;20181;-74
2023/08/21 02:12:37;;;;;;;11.97;8.57;;;23.50;1.00;;;;;;5025296;28;20505;-74
2023/08/21 02:15:02;;;;;;;11.07;8.47;;;23.50;1.00;;;;;;5029715;28;21619;-74
2023/08/21 02:17:28;;;;;;;12.40;8.03;;;23.50;1.00;;;;;;5024483;28;20205;-74
2023/08/21 02:19:53;;;;;;;14.13;9.37;;;23.50;1.00;;;;;;5030148;28;20197;-74
2023/08/21 02:22:19;;;;;;;12.93;8.97;;;23.40;1.00;;;;;;5027756;28;20559;-74
2023/08/21 02:24:44;;;;;;;13.33;9.07;;;23.40;1.00;;;;;;5027546;28;20227;-74
2023/08/21 02:27:10;;;;;;;9.97;8.17;;;23.30;1.00;;;;;;5028168;28;20193;-74
2023/08/21 02:29:35;;;;;;;18.00;8.57;;;23.40;1.00;;;;;;5028717;28;20552;-74
2023/08/21 02:32:01;;;;;;;10.70;8.20;;;23.30;1.00;;;;;;5028137;28;20185;-73
2023/08/21 02:34:26;;;;;;;12.10;8.57;;;23.20;1.00;;;;;;5020964;28;20269;-74
2023/08/21 02:36:52;;;;;;;15.23;9.30;;;23.10;1.00;;;;;;5028722;28;20232;-74
2023/08/21 02:39:18;;;;;;;10.90;8.20;;;23.10;1.00;;;;;;5027321;28;20552;-74
2023/08/21 02:41:43;;;;;;;12.00;8.70;;;23.10;1.00;;;;;;5028080;28;20331;-74
2023/08/21 02:44:09;;;;;;;10.57;8.30;;;23.10;1.00;;;;;;5028727;28;20267;-74
2023/08/21 02:46:36;;;;;;;17.00;8.40;;;;;;;;;;5027345;28;20235;-74
2023/08/21 02:49:02;;;;;;;15.37;8.57;;;23.10;1.00;;;;;;5025888;28;20181;-74
2023/08/21 02:51:28;;;;;;;9.27;8.27;;;23.10;1.00;;;;;;5026856;28;20432;-74
2023/08/21 02:53:53;;;;;;;16.97;8.70;;;23.10;1.00;;;;;;5028100;28;20446;-74
2023/08/21 02:56:19;;;;;;;16.43;9.27;;;22.90;1.00;;;;;;5027421;28;20331;-74
2023/08/21 02:58:44;;;;;;;10.90;8.50;;;22.90;1.00;;;;;;5027840;28;20262;-74
2023/08/21 03:01:10;;;;;;;12.60;8.50;;;22.90;1.00;;;;;;5028997;28;20178;-74
2023/08/21 03:03:35;;;;;;;11.50;8.73;;;22.90;1.00;;;;;;5028049;28;20612;-73
2023/08/21 03:06:01;;;;;;;10.20;8.50;;;22.90;1.00;;;;;;5028355;28;20185;-75
2023/08/21 03:08:27;;;;;;;11.00;8.70;;;23.00;1.00;;;;;;5027465;28;20216;-74
2023/08/21 03:10:53;;;;;;;13.50;8.90;;;22.80;1.00;;;;;;5024356;28;20243;-74
2023/08/21 03:13:18;;;;;;;18.13;9.33;;;22.90;1.00;;;;;;5026997;28;20173;-74
2023/08/21 03:15:44;;;;;;;10.40;8.60;;;22.90;1.00;;;;;;5026608;28;20235;-74
2023/08/21 03:18:10;;;;;;;11.10;8.63;;;22.80;1.00;;;;;;5029089;28;20185;-73
2023/08/21 03:20:35;;;;;;;11.77;8.57;;;22.80;1.00;;;;;;5027597;28;20877;-74
2023/08/21 03:23:01;;;;;;;16.30;8.80;;;22.80;1.00;;;;;;5028864;28;20247;-74
2023/08/21 03:25:27;;;;;;;15.30;8.60;;;22.80;1.00;;;;;;5028412;28;20570;-74
2023/08/21 03:27:53;;;;;;;12.07;8.63;;;22.70;1.00;;;;;;5026205;28;20596;-74
2023/08/21 03:30:19;;;;;;;12.17;9.00;;;22.70;1.00;;;;;;5028840;28;20475;-73
2023/08/21 03:32:44;;;;;;;14.80;8.80;;;22.70;1.00;;;;;;5025343;28;20193;-74
2023/08/21 03:35:10;;;;;;;13.13;9.33;;;22.80;1.00;;;;;;5027606;28;20232;-74
2023/08/21 03:37:36;;;;;;;12.50;8.60;;;22.70;1.00;;;;;;5027540;28;20208;-74
2023/08/21 03:40:03;;;;;;;11.50;8.13;;;22.70;1.00;;;;;;5029626;28;20209;-74
2023/08/21 03:42:29;;;;;;;14.33;8.47;;;22.60;1.00;;;;;;5031142;28;20272;-74
2023/08/21 03:44:54;;;;;;;12.53;8.30;;;22.60;1.00;;;;;;5028208;28;20518;-74
2023/08/21 03:47:20;;;;;;;11.63;8.10;;;22.60;1.00;;;;;;5027812;28;20304;-73
2023/08/21 03:49:48;;;;;;;14.60;8.43;;;22.60;1.00;;;;;;5026586;28;20197;-72
2023/08/21 03:52:13;;;;;;;12.67;8.40;;;22.60;1.00;;;;;;5026173;28;20191;-73
2023/08/21 03:54:39;;;;;;;17.00;8.60;;;22.60;1.00;;;;;;5029214;28;20431;-74
2023/08/21 03:57:04;;;;;;;11.30;8.23;;;22.50;1.00;;;;;;5025602;28;20227;-73
2023/08/21 03:59:30;;;;;;;14.77;9.13;;;22.70;1.00;;;;;;5028163;28;20203;-73
2023/08/21 04:01:55;;;;;;;11.53;8.40;;;22.60;1.00;;;;;;5024750;28;20189;-73
2023/08/21 04:04:21;;;;;;;13.57;9.10;;;22.60;1.00;;;;;;5025280;28;20520;-73
2023/08/21 04:06:46;;;;;;;15.23;9.30;;;22.60;1.00;;;;;;5026305;28;20192;-74
2023/08/21 04:09:12;;;;;;;13.90;8.83;;;22.60;1.00;;;;;;5025158;28;20261;-73
2023/08/21 04:11:38;;;;;;;12.50;9.13;;;22.60;1.00;;;;;;5017488;28;20228;-73
2023/08/21 04:14:04;;;;;;;14.17;8.70;;;22.60;1.00;;;;;;5026842;28;20267;-73
2023/08/21 04:16:30;;;;;;;11.80;9.17;;;22.60;1.00;;;;;;5023739;28;20934;-74
2023/08/21 04:18:56;;;;;;;11.80;9.27;;;22.60;1.00;;;;;;5025855;28;20228;-73
2023/08/21 04:21:22;;;;;;;12.33;8.90;;;22.50;1.00;;;;;;5020611;28;20460;-74
2023/08/21 04:23:47;;;;;;;11.87;8.80;;;22.50;1.00;;;;;;5039640;28;20934;-73
2023/08/21 04:26:13;;;;;;;12.57;8.83;;;22.50;1.00;;;;;;5022623;28;20180;-73
2023/08/21 04:28:39;;;;;;;15.53;9.90;;;22.40;1.00;;;;;;5026786;28;20283;-74
2023/08/21 04:31:07;;;;;;;13.80;8.80;;;22.40;1.00;;;;;;5025697;28;20191;-74
2023/08/21 04:33:34;;;;;;;12.97;8.60;;;22.40;1.00;;;;;;5018764;28;20726;-75
2023/08/21 04:36:00;;;;;;;17.50;9.33;;;22.40;1.00;;;;;;5025099;28;20442;-74
2023/08/21 04:38:25;;;;;;;10.77;8.13;;;22.30;1.00;;;;;;5024645;28;20718;-73
2023/08/21 04:40:51;;;;;;;14.00;8.73;;;24.20;1.00;;;;;;5026507;28;20181;-73
2023/08/21 04:43:17;;;;;;;13.33;8.90;;;22.30;1.00;;;;;;5025058;28;20181;-73
2023/08/21 04:45:48;;;;;;;14.50;9.60;;;22.30;1.00;;;;;;5026608;28;20716;-74
2023/08/21 04:48:13;;;;;;;13.17;8.40;;;22.30;1.00;;;;;;5039206;28;20695;-73
2023/08/21 04:50:39;;;;;;;12.73;8.40;;;22.30;1.00;;;;;;5024431;28;20458;-74
2023/08/21 04:53:04;;;;;;;14.43;8.50;;;22.40;1.00;;;;;;5025953;28;20262;-73
2023/08/21 04:55:30;;;;;;;14.50;8.93;;;22.40;1.00;;;;;;5026747;28;20583;-75
2023/08/21 04:57:55;;;;;;;12.60;8.87;;;22.40;1.00;;;;;;5025325;28;20205;-74
2023/08/21 05:00:21;;;;;;;12.53;9.30;;;22.50;1.00;;;;;;5026548;28;20205;-73
2023/08/21 05:02:46;;;;;;;15.23;9.10;;;22.50;1.00;;;;;;5023107;28;20521;-73
2023/08/21 05:05:12;;;;;;;13.97;9.13;;;22.60;1.00;;;;;;5027027;28;20267;-74
2023/08/21 05:07:37;;;;;;;14.50;8.60;;;22.60;1.00;;;;;;5029937;28;20283;-74
2023/08/21 05:10:03;;;;;;;13.27;9.10;;;22.60;1.00;;;;;;5018957;28;20315;-73
2023/08/21 05:12:29;;;;;;;11.50;8.53;;;22.60;1.00;;;;;;5028015;28;20539;-73
2023/08/21 05:14:54;;;;;;;14.47;9.33;;;22.60;1.00;;;;;;5027796;28;20185;-74
2023/08/21 05:17:20;;;;;;;16.43;9.27;;;22.60;1.00;;;;;;5028992;28;20193;-74
2023/08/21 05:19:45;;;;;;;13.80;9.27;;;22.60;1.00;;;;;;5030277;28;20196;-74
2023/08/21 05:22:11;;;;;;;13.10;10.30;;;22.70;1.00;;;;;;5025970;28;20177;-73
2023/08/21 05:24:37;;;;;;;20.20;11.53;;;22.80;1.00;;;;;;5025559;28;20736;-74
2023/08/21 05:27:04;;;;;;;14.67;10.60;;;22.80;1.00;;;;;;5024879;28;20263;-73
2023/08/21 05:29:30;;;;;;;12.90;10.80;;;22.80;1.00;;;;;;5024799;28;20436;-73
2023/08/21 05:31:55;;;;;;;12.03;10.20;;;23.00;1.00;;;;;;5025137;28;20455;-74
2023/08/21 05:34:21;;;;;;;20.23;11.37;;;22.90;1.00;;;;;;5031387;28;20184;-74
2023/08/21 05:36:46;;;;;;;15.47;10.73;;;23.10;1.00;;;;;;5031004;28;20267;-74
2023/08/21 05:39:12;;;;;;;17.73;10.80;;;23.10;1.00;;;;;;5031254;28;20298;-73
2023/08/21 05:41:38;;;;;;;22.30;11.97;;;23.20;1.00;;;;;;5030245;28;20180;-74
2023/08/21 05:44:04;;;;;;;17.03;12.20;;;23.30;1.00;;;;;;5031828;28;20440;-74
2023/08/21 05:46:30;;;;;;;21.20;12.00;;;23.50;1.00;;;;;;5034674;28;20188;-74
2023/08/21 05:48:55;;;;;;;14.20;11.13;;;23.40;1.00;;;;;;5037348;28;20447;-74
2023/08/21 05:51:21;;;;;;;15.50;11.23;;;23.40;1.00;;;;;;5031693;28;20651;-74
2023/08/21 05:53:46;;;;;;;11.80;10.27;;;23.50;1.00;;;;;;5029617;28;21351;-74
2023/08/21 05:56:12;;;;;;;16.43;11.40;;;23.60;1.00;;;;;;5026211;28;20652;-73
2023/08/21 05:58:37;;;;;;;20.27;11.37;;;23.70;1.00;;;;;;5026988;28;20200;-72
2023/08/21 06:01:03;;;;;;;15.50;11.40;;;23.80;1.00;;;;;;5028299;28;20434;-73
2023/08/21 06:03:28;;;;;;;14.83;11.43;;;23.90;1.00;;;;;;5031214;28;20597;-73
2023/08/21 06:05:54;;;;;;;19.77;12.67;;;23.90;1.00;;;;;;5030557;28;20188;-73
2023/08/21 06:08:20;;;;;;;14.37;11.40;;;24.10;1.00;;;;;;5029824;28;20312;-73
2023/08/21 06:10:45;;;;;;;18.80;12.13;;;24.30;1.00;;;;;;5029205;28;20622;-73
2023/08/21 06:13:11;;;;;;;15.10;11.97;;;24.10;1.00;;;;;;5029446;28;20209;-74
2023/08/21 06:15:36;;;;;;;20.73;12.27;;;24.20;1.00;;;;;;5028545;28;20177;-73
2023/08/21 06:18:02;;;;;;;16.57;12.07;;;24.40;1.00;;;;;;5028517;28;20217;-73
2023/08/21 06:20:27;;;;;;;21.20;12.67;;;24.40;1.00;;;;;;5026954;28;20233;-73
2023/08/21 06:22:53;;;;;;;18.90;11.83;;;24.50;1.00;;;;;;5025096;28;20177;-74
2023/08/21 06:25:19;;;;;;;15.27;11.40;;;24.70;1.00;;;;;;5026695;28;20181;-75
2023/08/21 06:27:45;;;;;;;17.70;12.00;;;24.80;1.00;;;;;;5030095;28;20201;-73
2023/08/21 06:30:10;;;;;;;15.33;12.27;;;25.00;1.00;;;;;;5029557;28;20543;-74
2023/08/21 06:32:36;;;;;;;15.07;11.40;;;25.10;1.00;;;;;;5027880;28;20181;-73
2023/08/21 06:35:02;;;;;;;15.03;11.23;;;25.10;1.00;;;;;;5027031;28;20660;-73
2023/08/21 06:37:27;;;;;;;13.27;11.40;;;25.30;1.00;;;;;;5029531;28;20732;-75
2023/08/21 06:39:53;;;;;;;13.90;10.87;;;25.40;1.00;;;;;;5028903;28;20201;-74
2023/08/21 06:42:18;;;;;;;13.93;11.60;;;25.50;1.00;;;;;;5028992;28;20239;-74
2023/08/21 06:44:44;;;;;;;12.57;11.00;;;25.70;1.00;;;;;;5029455;28;20247;-75
2023/08/21 06:47:09;;;;;;;16.30;12.03;;;25.70;1.00;;;;;;5027972;28;20209;-75
2023/08/21 06:49:35;;;;;;;14.60;10.43;;;25.90;1.00;;;;;;5024872;28;20189;-76
2023/08/21 06:52:01;;;;;;;22.37;11.93;;;25.90;1.00;;;;;;5022156;28;20190;-75
2023/08/21 06:54:26;;;;;;;16.00;10.73;;;26.00;1.00;;;;;;5025905;28;20283;-75
2023/08/21 06:56:52;;;;;;;19.60;10.47;;;26.10;1.00;;;;;;5035536;22;21093;-75
2023/08/21 06:59:17;;;;;;;15.40;11.63;;;26.40;1.00;;;;;;5006452;28;20699;-74
2023/08/21 07:01:43;;;;;;;17.60;11.03;;;26.60;1.00;;;;;;5007014;28;20695;-75
2023/08/21 07:04:08;;;;;;;13.30;10.53;;;26.70;1.00;;;;;;5010028;28;21882;-76
2023/08/21 07:06:34;;;;;;;19.67;11.53;;;26.90;1.00;;;;;;5006592;28;20194;-75
2023/08/21 07:08:59;;;;;;;18.47;11.00;;;27.00;1.00;;;;;;4990404;28;20538;-74
2023/08/21 07:11:25;;;;;;;13.40;11.60;;;27.20;1.00;;;;;;4991925;28;20663;-75
2023/08/21 07:13:50;;;;;;;17.43;10.40;;;27.30;1.00;;;;;;4988311;28;20621;-74
2023/08/21 07:16:16;;;;;;;15.37;11.00;;;27.30;1.00;;;;;;4991269;28;20233;-75
2023/08/21 07:18:41;;;;;;;13.20;10.57;;;27.40;1.00;;;;;;4991482;28;20194;-75
2023/08/21 07:21:07;;;;;;;14.07;11.13;;;27.50;1.00;;;;;;4990756;28;20692;-75
2023/08/21 07:23:33;;;;;;;13.73;10.40;;;27.70;1.00;;;;;;4993598;28;20285;-75
2023/08/21 07:25:59;;;;;;;15.87;11.30;;;27.80;1.00;;;;;;4989907;28;20204;-75
2023/08/21 07:28:25;;;;;;;12.73;10.97;;;28.10;1.00;;;;;;4991745;28;20179;-75
2023/08/21 07:30:56;;;;;;;15.60;11.10;;;28.40;1.00;;;;;;4990617;28;20221;-76
2023/08/21 07:33:22;;;;;;;16.47;10.70;;;28.60;1.00;;;;;;4989829;28;20580;-76
2023/08/21 07:35:47;;;;;;;13.67;10.77;;;28.70;1.00;;;;;;4989544;28;20224;-75
2023/08/21 07:38:13;;;;;;;13.63;11.00;;;28.70;1.00;;;;;;4990897;28;20186;-75
2023/08/21 07:40:38;;;;;;;14.80;10.87;;;28.90;1.00;;;;;;4988941;28;20554;-75
2023/08/21 07:43:04;;;;;;;13.77;10.00;;;29.20;1.00;;;;;;4990438;28;20238;-75
2023/08/21 07:45:30;;;;;;;14.87;11.10;;;;;;;;;;4986832;28;20310;-76
2023/08/21 07:47:55;;;;;;;15.10;10.27;;;29.30;1.00;;;;;;4993467;28;20550;-74
2023/08/21 07:50:21;;;;;;;11.30;9.57;;;29.80;1.00;;;;;;4989023;28;20273;-75
2023/08/21 07:52:47;;;;;;;12.02;9.73;;;30.60;1.00;;;;;;4992282;28;20186;-75
2023/08/21 07:55:12;;;;;;;12.82;10.18;;;31.70;1.00;;;;;;4993296;28;20250;-76
2023/08/21 07:57:38;;;;;;;11.77;9.02;;;32.50;1.00;;;;;;4982635;28;20245;-75
2023/08/21 08:00:04;;;;;;;12.68;9.63;;;33.50;1.00;;;;;;4993078;28;20228;-76
2023/08/21 08:02:29;;;;;;;12.88;9.32;;;34.20;1.00;;;;;;4988707;28;20214;-77
2023/08/21 08:04:55;;;;;;;13.40;9.07;;;34.70;1.00;;;;;;4991458;28;20558;-74
2023/08/21 08:07:20;;;;;;;11.70;8.70;;;35.40;1.00;;;;;;4989407;28;20214;-76
2023/08/21 08:09:46;;;;;;;10.15;8.30;;;36.00;1.00;;;;;;4990809;28;20248;-75
2023/08/21 08:12:12;;;;;;;10.85;9.13;;;36.60;1.00;;;;;;4989790;28;20684;-76
2023/08/21 08:14:38;;;;;;;8.95;7.80;;;37.20;1.00;;;;;;4992852;28;20195;-76
2023/08/21 08:17:03;;;;;;;10.05;7.55;;;37.70;1.00;;;;;;4988661;28;20676;-76
2023/08/21 08:19:29;;;;;;;10.77;8.45;;;37.70;1.00;;;;;;4987992;28;20222;-76
2023/08/21 08:21:54;;;;;;;10.77;7.50;;;38.10;1.00;;;;;;4989489;28;20322;-77
2023/08/21 08:24:20;;;;;;;12.68;7.68;;;38.50;1.00;;;;;;4989677;28;20194;-76
2023/08/21 08:26:46;;;;;;;23.52;7.82;;;38.90;1.00;;;;;;4988672;28;20230;-76
2023/08/21 08:29:11;;;;;;;10.45;7.22;;;39.20;1.00;;;;;;4990386;28;20252;-76
2023/08/21 08:31:38;;;;;;;12.43;7.97;;;39.40;1.00;;;;;;4992004;28;20256;-76
2023/08/21 08:34:04;;;;;;;9.93;7.45;;;39.50;1.00;;;;;;4988826;28;20174;-76
2023/08/21 08:36:29;;;;;;;10.55;7.65;;;39.80;1.00;;;;;;4988513;28;20249;-76
2023/08/21 08:38:55;;;;;;;10.38;8.25;;;40.00;1.00;;;;;;4991958;28;20206;-76
2023/08/21 08:41:46;;;;;;;13.95;8.20;;;40.20;1.00;;;;;;4988956;28;20175;-76
2023/08/21 08:44:15;;;;;;;12.65;7.70;;;39.20;1.00;;;;;;4991372;28;20195;-76
2023/08/21 08:46:41;;;;;;;14.88;7.47;;;40.20;1.00;;;;;;4988262;28;20297;-77
2023/08/21 08:49:07;;;;;;;10.60;8.25;;;40.20;1.00;;;;;;4992168;28;20273;-77
2023/08/21 08:51:34;;;;;;;12.70;7.65;;;40.60;1.00;;;;;;4989068;28;20278;-76
2023/08/21 08:54:00;;;;;;;11.55;7.35;;;40.40;1.00;;;;;;4988332;28;20194;-76
2023/08/21 08:56:25;;;;;;;10.90;7.90;;;40.60;1.00;;;;;;4956096;28;1032903;-77
2023/08/21 08:58:51;;;;;;;13.52;7.70;;;40.60;1.00;;;;;;4987595;28;20486;-78
2023/08/21 09:01:17;;;;;;;8.43;7.50;;;41.30;1.00;;;;;;4987081;28;20193;-78
2023/08/21 09:03:42;;;;;;;10.20;7.18;;;41.70;1.00;;;;;;4989807;28;20190;-76
2023/08/21 09:06:08;;;;;;;10.52;6.88;;;41.30;1.00;;;;;;4988597;28;20206;-78
2023/08/21 09:08:33;;;;;;;9.70;7.13;;;41.40;1.00;;;;;;4990149;28;20178;-77
2023/08/21 09:11:05;;;;;;;20.77;7.10;;;41.30;1.00;;;;;;4988798;28;20620;-77
2023/08/21 09:13:31;;;;;;;12.73;7.43;;;41.90;1.00;;;;;;4989198;28;20507;-77
2023/08/21 09:15:59;;;;;;;9.27;6.80;;;42.30;1.00;;;;;;4987967;28;20218;-75
2023/08/21 09:18:24;;;;;;;8.38;7.28;;;42.70;1.00;;;;;;4987959;28;20186;-77
2023/08/21 09:20:50;;;;;;;9.55;6.88;;;43.20;1.00;;;;;;4990493;28;20218;-76
2023/08/21 09:23:17;;;;;;;10.98;7.15;;;43.50;1.00;;;;;;4983247;28;20187;-77
2023/08/21 09:25:47;;;;;;;7.07;6.38;;;43.70;1.00;;;;;;4989458;28;20579;-77
2023/08/21 09:28:14;;;;;;;8.57;6.55;;;43.90;1.00;;;;;;4985456;28;20189;-78
2023/08/21 09:30:46;;;;;;;9.35;7.18;;;43.80;1.00;;;;;;4986542;28;20218;-78
2023/08/21 09:33:12;;;;;;;7.93;6.50;;;43.90;1.00;;;;;;4991226;28;20198;-77
2023/08/21 09:35:39;;;;;;;12.13;7.30;;;44.10;1.00;;;;;;4990362;28;20202;-77
2023/08/21 09:38:06;;;;;;;8.52;6.63;;;44.20;1.00;;;;;;4986408;28;20208;-77
2023/08/21 09:40:32;;;;;;;10.15;6.85;;;44.40;1.00;;;;;;4987572;28;20198;-77
2023/08/21 09:42:58;;;;;;;11.82;6.80;;;44.80;1.00;;;;;;4988980;28;20170;-78
2023/08/21 09:45:25;;;;;;;8.05;6.20;;;45.00;1.00;;;;;;4989664;28;20187;-76
2023/08/21 09:47:52;;;;;;;9.75;6.30;;;45.00;1.00;;;;;;4988578;28;20204;-78
2023/08/21 09:50:19;;;;;;;9.60;6.53;;;;;;;;;;4987038;28;20235;-78
2023/08/21 09:52:45;;;;;;;11.82;6.07;;;45.00;1.00;;;;;;4994054;28;20186;-77
2023/08/21 09:55:13;;;;;;;9.55;6.55;;;45.00;1.00;;;;;;4991149;28;20294;-77
2023/08/21 09:57:40;;;;;;;9.60;5.50;;;45.10;1.00;;;;;;4986779;28;20213;-77
2023/08/21 10:00:15;;;;;;;12.27;6.70;;;45.30;1.00;;;;;;4988084;28;20238;-78
2023/08/21 10:02:45;;;;;;;11.50;6.28;;;45.60;1.00;;;;;;4989963;28;20190;-77
2023/08/21 10:05:12;;;;;;;11.77;6.20;;;45.70;1.00;;;;;;4992304;28;20186;-78
2023/08/21 10:07:39;;;;;;;7.70;5.28;;;46.00;1.00;;;;;;4994013;28;20321;-79
2023/08/21 10:10:05;;;;;;;7.18;5.75;;;46.10;1.00;;;;;;5001735;28;20236;-78
2023/08/21 10:12:30;;;;;;;9.40;6.07;;;46.20;1.00;;;;;;4991885;28;20248;-78
2023/08/21 10:14:56;;;;;;;10.50;6.03;;;46.80;1.00;;;;;;4999487;28;20185;-78
2023/08/21 10:17:22;;;;;;;9.93;6.50;;;47.20;1.00;;;;;;4995531;28;20580;-78
2023/08/21 10:19:52;;;;;;;8.52;5.63;;;47.40;1.00;;;;;;5002918;28;20210;-78
2023/08/21 10:22:45;;;;;;;6.20;5.60;;;47.30;1.00;;;;;;4996296;28;20186;-77
2023/08/21 10:25:29;;;;;;;7.40;5.10;;;47.10;1.00;;;;;;4991728;28;20570;-78
2023/08/21 10:27:57;;;;;;;6.88;4.63;;;47.20;1.00;;;;;;5002275;28;20437;-78
2023/08/21 10:30:27;;;;;;;6.60;5.45;;;47.40;1.00;;;;;;4993009;28;20592;-78
2023/08/21 10:32:59;;;;;;;8.57;5.53;;;47.70;1.00;;;;;;4985325;28;20190;-77
2023/08/21 10:35:30;;;;;;;7.63;5.35;;;47.50;1.00;;;;;;4990074;28;20194;-77
2023/08/21 10:38:17;;;;;;;8.73;5.30;;;47.40;1.00;;;;;;5003230;28;20178;-78
2023/08/21 10:41:04;;;;;;;5.65;5.10;;;47.20;1.00;;;;;;4992642;28;20221;-77
2023/08/21 10:43:46;;;;;;;11.07;5.40;;;46.50;1.00;;;;;;4997186;28;20179;-77
2023/08/21 10:46:12;;;;;;;8.73;5.45;;;46.80;1.00;;;;;;4988564;28;20206;-77
2023/08/21 10:48:39;;;;;;;8.93;5.85;;;46.80;1.00;;;;;;4995692;28;20187;-77
2023/08/21 10:51:07;;;;;;;10.88;6.30;;;47.30;1.00;;;;;;4994491;28;20687;-78
2023/08/21 10:53:33;;;;;;;7.93;5.72;;;48.10;1.00;;;;;;4996823;28;20210;-78
2023/08/21 10:56:03;;;;;;;36.33;30.13;;;48.00;1.00;;;;;;5002634;28;20265;-79
2023/08/21 10:58:45;;;;;;;20.60;17.83;;;47.60;1.00;;;;;;5004070;28;20260;-80
2023/08/21 11:01:13;;;;;;;16.88;13.98;;;47.50;1.00;;;;;;4992765;28;20185;-78
2023/08/21 11:03:39;;;;;;;17.95;13.50;;;47.60;1.00;;;;;;4993121;28;20182;-79
2023/08/21 11:06:07;;;;;;;9.30;7.82;;;47.70;1.00;;;;;;4992201;28;20203;-79
2023/08/21 11:08:34;;;;;;;15.25;9.02;;;48.30;1.00;;;;;;4992844;28;20684;-78
2023/08/21 11:11:00;;;;;;;9.55;7.00;;;48.60;1.00;;;;;;4993362;28;20281;-79
2023/08/21 11:13:26;;;;;;;8.48;6.93;;;48.30;1.00;;;;;;4994192;28;20190;-79
2023/08/21 11:16:02;;;;;;;10.00;6.60;;;47.90;1.00;;;;;;4993657;28;20211;-79
2023/08/21 11:18:34;;;;;;;6.93;5.88;;;47.40;1.00;;;;;;4992920;28;20205;-79
2023/08/21 11:21:08;;;;;;;9.07;5.97;;;47.60;1.00;;;;;;4995604;28;20230;-79
2023/08/21 11:23:41;;;;;;;7.72;5.50;;;46.80;1.00;;;;;;4999616;28;20676;-79
2023/08/21 11:26:10;;;;;;;9.05;6.10;;;46.50;1.00;;;;;;5001506;28;20278;-79
2023/08/21 11:28:37;;;;;;;10.32;5.15;;;47.30;1.00;;;;;;4995018;28;20186;-77
2023/08/21 11:31:04;;;;;;;9.65;5.63;;;47.90;1.00;;;;;;4998493;28;20475;-78
2023/08/21 11:33:32;;;;;;;7.50;5.35;;;46.60;1.00;;;;;;4995759;28;20182;-77
2023/08/21 11:35:59;;;;;;;13.60;5.60;;;46.50;1.00;;;;;;4993816;28;20300;-77
2023/08/21 11:38:26;;;;;;;11.93;6.25;;;46.80;1.00;;;;;;4990957;28;20226;-77
2023/08/21 11:40:57;;;;;;;9.10;5.90;;;44.90;1.00;;;;;;4995084;28;20213;-77
2023/08/21 11:43:36;;;;;;;9.60;6.13;;;42.80;1.00;;;;;;4991126;28;20722;-77
2023/08/21 11:46:03;;;;;;;8.20;6.47;;;42.50;1.00;;;;;;4991280;28;20214;-77
2023/08/21 11:48:29;;;;;;;8.85;5.97;;;44.10;1.00;;;;;;4990472;28;20553;-77
2023/08/21 11:50:55;;;;;;;9.35;6.95;;;45.80;1.00;;;;;;4991365;28;20200;-77
2023/08/21 11:53:51;;;;;;;9.55;6.05;;;46.80;1.00;;;;;;4989290;28;20576;-77
2023/08/21 11:56:18;;;;;;;9.60;6.40;;;47.40;1.00;;;;;;4989720;28;20843;-76
2023/08/21 11:58:46;;;;;;;9.43;5.95;;;46.70;1.00;;;;;;4989551;28;20320;-78
2023/08/21 12:01:21;;;;;;;8.43;6.20;;;44.90;1.00;;;;;;4990948;28;20239;-75
2023/08/21 12:03:54;;;;;;;7.50;5.75;;;42.70;1.00;;;;;;4990864;28;20324;-77
2023/08/21 12:06:21;;;;;;;7.65;5.93;;;41.10;1.00;;;;;;4993749;28;20206;-77
2023/08/21 12:08:46;;;;;;;7.57;6.13;;;39.40;1.00;;;;;;4988730;28;20179;-76
2023/08/21 12:11:12;;;;;;;8.50;6.40;;;40.60;1.00;;;;;;4987441;28;20190;-77
2023/08/21 12:13:37;;;;;;;7.43;5.70;;;42.10;1.00;;;;;;4988750;28;20186;-77
2023/08/21 12:16:03;;;;;;;7.43;6.10;;;41.60;1.00;;;;;;4992114;28;20228;-76
2023/08/21 12:18:29;;;;;;;9.75;6.65;;;41.60;1.00;;;;;;4996744;28;20217;-76
2023/08/21 12:20:54;;;;;;;9.00;6.13;;;42.70;1.00;;;;;;4999666;28;20296;-76
2023/08/21 12:23:20;;;;;;;10.45;6.18;;;43.90;1.00;;;;;;5000926;28;20190;-76
2023/08/21 12:25:46;;;;;;;10.73;6.00;;;42.70;1.00;;;;;;4992700;28;20214;-76
2023/08/21 12:28:11;;;;;;;8.38;5.75;;;41.00;1.00;;;;;;4996508;28;20202;-77
2023/08/21 12:30:37;;;;;;;13.70;6.00;;;40.90;1.00;;;;;;4999676;28;20205;-76
2023/08/21 12:33:03;;;;;;;11.55;6.10;;;42.40;1.00;;;;;;4990503;28;20234;-76
2023/08/21 12:35:29;;;;;;;7.47;5.13;;;45.40;1.00;;;;;;4989477;28;20214;-77
2023/08/21 12:37:57;;;;;;;9.25;5.28;;;45.40;1.00;;;;;;4991027;28;20185;-77
2023/08/21 12:40:22;;;;;;;8.32;5.03;;;45.00;1.00;;;;;;4989409;28;20684;-77
2023/08/21 12:42:48;;;;;;;7.40;4.70;;;44.70;1.00;;;;;;4989921;28;20264;-77
2023/08/21 12:45:13;;;;;;;10.30;5.30;;;43.70;1.00;;;;;;4990719;28;20182;-77